createdAt,value
2023-03-01T00:00:36.845Z,3.229
2023-03-01T00:01:36.348Z,3.187
2023-03-01T00:02:34.439Z,3.187
2023-03-01T00:03:35.904Z,3.176
2023-03-01T00:04:35.882Z,3.187
2023-03-01T00:05:36.493Z,3.187
2023-03-01T00:06:35.689Z,3.229
2023-03-01T00:07:34.928Z,3.197
2023-03-01T00:08:35.623Z,3.187
2023-03-01T00:10:35.674Z,3.187
2023-03-01T00:11:34.966Z,3.187
2023-03-01T00:12:35.843Z,3.187
2023-03-01T00:13:35.851Z,3.218
2023-03-01T00:14:35.619Z,3.239
2023-03-01T00:15:35.649Z,3.145
2023-03-01T00:16:35.279Z,3.135
2023-03-01T00:17:34.787Z,3.187
2023-03-01T00:18:35.379Z,3.187
2023-03-01T00:19:34.750Z,3.155
2023-03-01T00:20:35.633Z,3.176
2023-03-01T00:21:35.938Z,3.187
2023-03-01T00:22:34.873Z,3.187
2023-03-01T00:23:34.665Z,3.187
2023-03-01T00:24:35.028Z,3.187
2023-03-01T00:25:34.869Z,3.176
2023-03-01T00:26:35.420Z,3.176
2023-03-01T00:27:34.793Z,3.187
2023-03-01T00:28:34.649Z,3.169
2023-03-01T00:29:34.682Z,3.125
2023-03-01T00:30:35.625Z,3.151
2023-03-01T00:31:34.491Z,3.149
2023-03-01T00:32:34.628Z,3.125
2023-03-01T00:33:34.893Z,3.125
2023-03-01T00:34:34.363Z,3.098
2023-03-01T00:35:35.509Z,3.062
2023-03-01T00:36:35.111Z,3.115
2023-03-01T00:37:34.285Z,3.125
2023-03-01T00:38:34.935Z,3.125
2023-03-01T00:39:34.940Z,3.125
2023-03-01T00:40:35.376Z,3.125
2023-03-01T00:41:35.549Z,3.125
2023-03-01T00:42:34.634Z,3.125
2023-03-01T00:43:35.296Z,3.125
2023-03-01T00:44:34.230Z,3.104
2023-03-01T00:45:35.229Z,3.093
2023-03-01T00:46:35.364Z,3.088
2023-03-01T00:47:34.931Z,3.062
2023-03-01T00:48:34.652Z,3.062
2023-03-01T00:49:35.159Z,3.062
2023-03-01T00:50:34.749Z,3.062
2023-03-01T00:51:35.180Z,3.062
2023-03-01T00:52:34.085Z,3.062
2023-03-01T00:53:34.655Z,3.062
2023-03-01T00:54:34.810Z,3.062
2023-03-01T00:55:35.294Z,3.030
2023-03-01T00:56:34.801Z,3
2023-03-01T00:57:35.446Z,3
2023-03-01T00:58:34.290Z,2.989
2023-03-01T00:59:34.535Z,3
2023-03-01T01:00:36.359Z,3
2023-03-01T01:01:39.592Z,3.041
2023-03-01T01:02:35.311Z,3.020
2023-03-01T01:03:34.476Z,3.030
2023-03-01T01:04:34.746Z,3
2023-03-01T01:05:35.422Z,2.957
2023-03-01T01:06:34.743Z,3
2023-03-01T01:07:35.133Z,3
2023-03-01T01:08:34.464Z,3
2023-03-01T01:09:34.094Z,3
2023-03-01T01:10:34.612Z,3
2023-03-01T01:11:34.521Z,3
2023-03-01T01:12:35.007Z,3
2023-03-01T01:13:34.202Z,3
2023-03-01T01:14:34.897Z,3
2023-03-01T01:15:35.088Z,2.979
2023-03-01T01:16:34.947Z,3
2023-03-01T01:17:35.249Z,3
2023-03-01T01:18:34.060Z,3
2023-03-01T01:19:34.533Z,3
2023-03-01T01:20:35.187Z,3
2023-03-01T01:21:34.562Z,3
2023-03-01T01:22:34.715Z,2.979
2023-03-01T01:23:34.974Z,2.947
2023-03-01T01:24:35.099Z,2.937
2023-03-01T01:25:34.952Z,2.937
2023-03-01T01:26:35.418Z,2.937
2023-03-01T01:27:34.113Z,2.937
2023-03-01T01:28:34.454Z,2.937
2023-03-01T01:29:34.142Z,2.937
2023-03-01T01:30:34.807Z,2.937
2023-03-01T01:31:34.716Z,2.864
2023-03-01T01:32:35.451Z,2.875
2023-03-01T01:33:34.913Z,2.854
2023-03-01T01:34:34.393Z,2.875
2023-03-01T01:35:34.867Z,2.875
2023-03-01T01:36:34.688Z,2.895
2023-03-01T01:37:35.216Z,2.937
2023-03-01T01:38:34.360Z,2.895
2023-03-01T01:39:34.494Z,2.875
2023-03-01T01:40:35.429Z,2.875
2023-03-01T01:41:34.618Z,2.791
2023-03-01T01:42:35.010Z,2.791
2023-03-01T01:43:34.351Z,2.812
2023-03-01T01:44:34.754Z,2.843
2023-03-01T01:45:34.671Z,2.854
2023-03-01T01:46:34.958Z,2.875
2023-03-01T01:47:34.702Z,2.843
2023-03-01T01:48:35.187Z,2.812
2023-03-01T01:49:34.296Z,2.801
2023-03-01T01:50:34.016Z,2.759
2023-03-01T01:51:34.518Z,2.687
2023-03-01T01:52:34.795Z,2.697
2023-03-01T01:53:35.093Z,2.718
2023-03-01T01:54:34.345Z,2.729
2023-03-01T01:55:34.426Z,2.737
2023-03-01T01:56:33.783Z,2.780
2023-03-01T01:57:34.186Z,2.774
2023-03-01T01:58:34.504Z,2.75
2023-03-01T01:59:35.017Z,2.75
2023-03-01T02:00:36.079Z,2.729
2023-03-01T02:01:50.537Z,2.687
2023-03-01T02:02:35.899Z,2.713
2023-03-01T02:03:35.818Z,2.687
2023-03-01T02:04:35.188Z,2.687
2023-03-01T02:05:34.672Z,2.737
2023-03-01T02:06:34.746Z,2.75
2023-03-01T02:07:35.176Z,2.75
2023-03-01T02:08:35.074Z,2.732
2023-03-01T02:09:34.683Z,2.699
2023-03-01T02:10:34.541Z,2.713
2023-03-01T02:11:34.488Z,2.687
2023-03-01T02:12:35.592Z,2.687
2023-03-01T02:13:35.543Z,2.712
2023-03-01T02:14:34.938Z,2.704
2023-03-01T02:15:36.125Z,2.687
2023-03-01T02:16:34.717Z,2.642
2023-03-01T02:17:35.000Z,2.599
2023-03-01T02:18:34.765Z,2.625
2023-03-01T02:19:42.420Z,2.625
2023-03-01T02:20:34.800Z,2.625
2023-03-01T02:21:35.069Z,2.625
2023-03-01T02:22:34.667Z,2.160
2023-03-01T02:23:34.662Z,2.625
2023-03-01T02:24:34.470Z,2.625
2023-03-01T02:25:42.809Z,2.625
2023-03-01T02:26:35.493Z,2.625
2023-03-01T02:27:34.637Z,2.625
2023-03-01T02:28:34.688Z,2.625
2023-03-01T02:29:35.104Z,2.625
2023-03-01T02:30:34.591Z,2.604
2023-03-01T02:31:48.674Z,2.582
2023-03-01T02:32:34.952Z,2.541
2023-03-01T02:33:35.151Z,2.530
2023-03-01T02:34:34.619Z,2.562
2023-03-01T02:35:48.923Z,2.562
2023-03-01T02:36:34.701Z,2.562
2023-03-01T02:37:35.386Z,2.562
2023-03-01T02:38:35.142Z,2.510
2023-03-01T02:39:34.836Z,2.520
2023-03-01T02:40:34.809Z,2.562
2023-03-01T02:41:35.535Z,2.520
2023-03-01T02:42:35.113Z,2.562
2023-03-01T02:43:35.339Z,2.130
2023-03-01T02:44:35.163Z,2.562
2023-03-01T02:45:35.096Z,2.562
2023-03-01T02:46:35.123Z,2.562
2023-03-01T02:47:34.808Z,2.130
2023-03-01T02:48:34.940Z,2.530
2023-03-01T02:49:35.801Z,2.541
2023-03-01T02:50:35.015Z,2.489
2023-03-01T02:51:35.094Z,2.479
2023-03-01T02:52:34.456Z,2.5
2023-03-01T02:53:34.502Z,2.5
2023-03-01T02:54:35.066Z,2.5
2023-03-01T02:55:34.833Z,2.489
2023-03-01T02:56:34.853Z,2.5
2023-03-01T02:57:34.733Z,2.5
2023-03-01T02:58:35.504Z,2.5
2023-03-01T02:59:36.134Z,2.489
2023-03-01T03:00:37.432Z,2.437
2023-03-01T03:01:35.757Z,2.468
2023-03-01T03:02:35.101Z,2.079
2023-03-01T03:03:35.148Z,2.468
2023-03-01T03:04:34.342Z,2.437
2023-03-01T03:05:35.185Z,2.437
2023-03-01T03:06:34.337Z,2.437
2023-03-01T03:07:34.051Z,2.457
2023-03-01T03:08:34.428Z,2.479
2023-03-01T03:09:35.161Z,2.395
2023-03-01T03:10:34.756Z,2.437
2023-03-01T03:11:34.736Z,2.426
2023-03-01T03:12:34.021Z,2.395
2023-03-01T03:13:34.538Z,2.405
2023-03-01T03:14:34.157Z,2.395
2023-03-01T03:15:34.246Z,2.437
2023-03-01T03:16:34.543Z,2.437
2023-03-01T03:17:34.512Z,2.405
2023-03-01T03:18:35.411Z,2.375
2023-03-01T03:19:34.286Z,2.437
2023-03-01T03:20:35.757Z,2.437
2023-03-01T03:21:35.809Z,2.029
2023-03-01T03:22:35.896Z,2.405
2023-03-01T03:23:35.185Z,2.375
2023-03-01T03:24:34.579Z,2.405
2023-03-01T03:25:36.022Z,2.437
2023-03-01T03:26:34.760Z,2.375
2023-03-01T03:27:34.491Z,2.426
2023-03-01T03:28:34.664Z,2.437
2023-03-01T03:29:34.858Z,2.375
2023-03-01T03:30:35.686Z,2.375
2023-03-01T03:31:35.241Z,2.395
2023-03-01T03:32:35.728Z,2.375
2023-03-01T03:33:35.634Z,2.375
2023-03-01T03:34:35.524Z,2.357
2023-03-01T03:35:34.848Z,2.337
2023-03-01T03:36:34.824Z,2.302
2023-03-01T03:37:34.615Z,2.301
2023-03-01T03:38:34.830Z,2.280
2023-03-01T03:39:34.596Z,2.312
2023-03-01T03:40:34.481Z,2.312
2023-03-01T03:41:34.711Z,2.375
2023-03-01T03:42:34.761Z,2.329
2023-03-01T03:43:35.190Z,2.362
2023-03-01T03:44:34.590Z,2.375
2023-03-01T03:45:34.652Z,2.375
2023-03-01T03:46:35.046Z,2.383
2023-03-01T03:47:34.722Z,2.375
2023-03-01T03:48:34.928Z,2.375
2023-03-01T03:49:35.655Z,2.337
2023-03-01T03:50:35.260Z,2.291
2023-03-01T03:51:33.612Z,2.301
2023-03-01T03:52:34.529Z,2.25
2023-03-01T03:53:34.267Z,2.239
2023-03-01T03:54:34.753Z,2.25
2023-03-01T03:55:35.737Z,2.25
2023-03-01T03:56:34.722Z,2.260
2023-03-01T03:57:35.054Z,2.239
2023-03-01T03:58:34.958Z,2.25
2023-03-01T03:59:35.770Z,2.25
2023-03-01T04:00:37.065Z,2.25
2023-03-01T04:01:35.581Z,2.25
2023-03-01T04:02:35.189Z,2.25
2023-03-01T04:03:35.039Z,2.270
2023-03-01T04:04:34.847Z,2.312
2023-03-01T04:05:34.998Z,2.312
2023-03-01T04:06:35.110Z,2.312
2023-03-01T04:07:35.064Z,2.312
2023-03-01T04:08:34.541Z,2.312
2023-03-01T04:09:34.880Z,2.312
2023-03-01T04:10:35.722Z,2.280
2023-03-01T04:11:34.156Z,2.25
2023-03-01T04:12:34.155Z,2.260
2023-03-01T04:13:34.581Z,2.270
2023-03-01T04:14:34.705Z,2.291
2023-03-01T04:15:35.830Z,2.25
2023-03-01T04:16:44.137Z,2.25
2023-03-01T04:17:34.224Z,2.218
2023-03-01T04:18:35.357Z,2.197
2023-03-01T04:19:34.089Z,2.218
2023-03-01T04:20:34.816Z,2.25
2023-03-01T04:21:34.844Z,2.25
2023-03-01T04:22:34.075Z,2.207
2023-03-01T04:23:34.670Z,2.187
2023-03-01T04:24:34.440Z,2.187
2023-03-01T04:25:34.974Z,2.229
2023-03-01T04:26:34.786Z,2.239
2023-03-01T04:27:34.547Z,2.187
2023-03-01T04:28:35.031Z,2.187
2023-03-01T04:29:34.403Z,2.187
2023-03-01T04:30:34.672Z,2.187
2023-03-01T04:31:35.261Z,2.239
2023-03-01T04:32:34.514Z,2.197
2023-03-01T04:33:35.421Z,2.25
2023-03-01T04:34:35.143Z,2.25
2023-03-01T04:35:34.824Z,2.25
2023-03-01T04:36:36.214Z,2.25
2023-03-01T04:37:34.877Z,2.25
2023-03-01T04:38:35.453Z,2.25
2023-03-01T04:39:34.999Z,2.187
2023-03-01T04:40:34.784Z,2.197
2023-03-01T04:41:35.300Z,2.239
2023-03-01T04:42:35.571Z,2.218
2023-03-01T04:43:36.084Z,2.187
2023-03-01T04:44:35.411Z,2.187
2023-03-01T04:45:35.298Z,2.187
2023-03-01T04:46:40.140Z,2.187
2023-03-01T04:47:34.591Z,2.176
2023-03-01T04:48:57.192Z,2.187
2023-03-01T04:49:34.567Z,2.187
2023-03-01T04:50:35.305Z,2.125
2023-03-01T04:51:34.847Z,2.125
2023-03-01T04:52:35.277Z,2.166
2023-03-01T04:53:35.179Z,2.125
2023-03-01T04:54:34.684Z,2.155
2023-03-01T04:55:35.447Z,2.187
2023-03-01T04:56:35.057Z,2.187
2023-03-01T04:57:34.649Z,2.229
2023-03-01T04:58:34.449Z,2.187
2023-03-01T04:59:34.600Z,2.176
2023-03-01T05:00:37.280Z,2.166
2023-03-01T05:01:35.759Z,2.093
2023-03-01T05:02:36.045Z,2.093
2023-03-01T05:03:35.044Z,2.114
2023-03-01T05:04:35.439Z,2.125
2023-03-01T05:05:36.171Z,2.125
2023-03-01T05:06:36.413Z,2.125
2023-03-01T05:07:35.462Z,2.093
2023-03-01T05:08:34.979Z,2.062
2023-03-01T05:09:34.686Z,2.114
2023-03-01T05:10:35.005Z,2.062
2023-03-01T05:11:35.196Z,2.062
2023-03-01T05:12:34.479Z,2.062
2023-03-01T05:13:35.260Z,2.062
2023-03-01T05:14:34.500Z,2.062
2023-03-01T05:15:36.016Z,2.062
2023-03-01T05:16:36.407Z,2.062
2023-03-01T05:17:35.334Z,2.099
2023-03-01T05:18:35.434Z,2.125
2023-03-01T05:19:35.462Z,2.125
2023-03-01T05:20:35.652Z,2.125
2023-03-01T05:21:35.391Z,2.087
2023-03-01T05:22:34.883Z,2.062
2023-03-01T05:23:35.042Z,2.062
2023-03-01T05:24:34.976Z,2.053
2023-03-01T05:25:36.059Z,2.037
2023-03-01T05:26:42.323Z,2.062
2023-03-01T05:27:34.657Z,2.062
2023-03-01T05:28:35.137Z,2.098
2023-03-01T05:29:34.430Z,2.125
2023-03-01T05:30:35.261Z,2.142
2023-03-01T05:31:34.884Z,2.125
2023-03-01T05:32:34.656Z,2.062
2023-03-01T05:33:36.836Z,2.062
2023-03-01T05:34:34.719Z,2.010
2023-03-01T05:35:35.416Z,2
2023-03-01T05:36:35.203Z,2
2023-03-01T05:37:35.207Z,2
2023-03-01T05:38:34.725Z,1.968
2023-03-01T05:39:35.274Z,1.937
2023-03-01T05:40:35.024Z,1.937
2023-03-01T05:41:34.579Z,2
2023-03-01T05:42:34.744Z,2
2023-03-01T05:43:34.757Z,2
2023-03-01T05:44:34.884Z,2
2023-03-01T05:45:35.516Z,2
2023-03-01T05:46:35.591Z,2.051
2023-03-01T05:47:35.102Z,2.010
2023-03-01T05:48:34.899Z,2
2023-03-01T05:49:35.143Z,2
2023-03-01T05:50:34.897Z,1.978
2023-03-01T05:51:36.303Z,1.957
2023-03-01T05:52:35.008Z,2
2023-03-01T05:53:35.207Z,2.041
2023-03-01T05:54:34.794Z,1.957
2023-03-01T05:55:34.939Z,1.937
2023-03-01T05:56:34.746Z,1.968
2023-03-01T05:57:34.917Z,2
2023-03-01T05:58:35.132Z,2
2023-03-01T05:59:34.730Z,2
2023-03-01T06:00:36.486Z,1.999
2023-03-01T06:01:35.450Z,1.957
2023-03-01T06:02:35.204Z,1.937
2023-03-01T06:03:35.253Z,1.978
2023-03-01T06:04:34.484Z,1.947
2023-03-01T06:05:35.152Z,2
2023-03-01T06:06:35.003Z,1.957
2023-03-01T06:07:34.789Z,1.937
2023-03-01T06:08:34.616Z,1.968
2023-03-01T06:09:34.920Z,1.937
2023-03-01T06:10:35.610Z,1.937
2023-03-01T06:11:35.926Z,1.937
2023-03-01T06:12:36.106Z,1.937
2023-03-01T06:13:35.593Z,1.937
2023-03-01T06:14:34.586Z,1.937
2023-03-01T06:15:35.413Z,1.895
2023-03-01T06:16:35.735Z,1.926
2023-03-01T06:17:35.903Z,1.937
2023-03-01T06:18:35.704Z,1.968
2023-03-01T06:19:35.204Z,1.957
2023-03-01T06:20:35.984Z,2
2023-03-01T06:21:35.738Z,1.968
2023-03-01T06:22:36.344Z,1.937
2023-03-01T06:23:36.067Z,1.937
2023-03-01T06:24:34.831Z,1.937
2023-03-01T06:25:36.630Z,1.875
2023-03-01T06:26:35.468Z,1.875
2023-03-01T06:27:40.089Z,1.875
2023-03-01T06:28:35.211Z,1.916
2023-03-01T06:29:35.227Z,1.937
2023-03-01T06:30:36.075Z,1.937
2023-03-01T06:31:34.932Z,1.906
2023-03-01T06:32:35.104Z,1.895
2023-03-01T06:33:40.389Z,1.916
2023-03-01T06:34:35.347Z,1.937
2023-03-01T06:35:39.717Z,1.906
2023-03-01T06:37:35.972Z,1.822
2023-03-01T06:38:35.869Z,1.832
2023-03-01T06:39:35.488Z,1.875
2023-03-01T06:40:35.203Z,1.875
2023-03-01T06:41:35.125Z,1.843
2023-03-01T06:42:34.870Z,1.812
2023-03-01T06:43:35.185Z,1.843
2023-03-01T06:44:35.389Z,1.875
2023-03-01T06:45:35.141Z,1.837
2023-03-01T06:46:35.423Z,1.812
2023-03-01T06:47:48.908Z,1.812
2023-03-01T06:48:35.105Z,1.812
2023-03-01T06:49:34.655Z,1.812
2023-03-01T06:50:36.439Z,1.791
2023-03-01T06:51:49.596Z,1.801
2023-03-01T06:52:35.491Z,1.801
2023-03-01T06:53:35.139Z,1.812
2023-03-01T06:54:34.655Z,1.785
2023-03-01T06:55:35.369Z,1.75
2023-03-01T06:56:36.234Z,1.803
2023-03-01T06:57:35.442Z,1.812
2023-03-01T06:58:35.704Z,1.820
2023-03-01T06:59:35.728Z,1.849
2023-03-01T07:00:37.434Z,1.875
2023-03-01T07:01:37.000Z,1.875
2023-03-01T07:02:35.947Z,1.866
2023-03-01T07:03:36.561Z,1.824
2023-03-01T07:04:35.050Z,1.812
2023-03-01T07:05:40.725Z,1.862
2023-03-01T07:06:35.432Z,1.875
2023-03-01T07:07:34.848Z,1.916
2023-03-01T07:08:36.064Z,1.937
2023-03-01T07:09:35.426Z,1.937
2023-03-01T07:10:35.332Z,1.875
2023-03-01T07:11:35.783Z,1.875
2023-03-01T07:12:35.703Z,1.875
2023-03-01T07:13:34.972Z,1.875
2023-03-01T07:14:39.403Z,1.885
2023-03-01T07:15:36.083Z,1.937
2023-03-01T07:16:37.081Z,1.906
2023-03-01T07:17:35.863Z,1.895
2023-03-01T07:18:35.878Z,1.875
2023-03-01T07:19:35.793Z,1.875
2023-03-01T07:20:36.213Z,1.926
2023-03-01T07:21:34.985Z,1.947
2023-03-01T07:22:35.115Z,2
2023-03-01T07:23:35.848Z,2
2023-03-01T07:24:35.872Z,2
2023-03-01T07:25:35.644Z,1.989
2023-03-01T07:26:38.585Z,1.968
2023-03-01T07:27:36.345Z,1.989
2023-03-01T07:28:36.456Z,1.937
2023-03-01T07:29:35.272Z,1.978
2023-03-01T07:30:35.007Z,2.030
2023-03-01T07:31:49.248Z,2.062
2023-03-01T07:32:35.789Z,2.062
2023-03-01T07:33:36.061Z,2.041
2023-03-01T07:34:35.568Z,2.020
2023-03-01T07:35:36.501Z,2.062
2023-03-01T07:36:35.744Z,2.062
2023-03-01T07:37:36.308Z,2.062
2023-03-01T07:38:36.212Z,2.114
2023-03-01T07:39:35.929Z,2.125
2023-03-01T07:40:36.267Z,2.125
2023-03-01T07:41:36.417Z,2.125
2023-03-01T07:42:35.540Z,2.125
2023-03-01T07:43:36.291Z,2.062
2023-03-01T07:44:35.482Z,2.093
2023-03-01T07:45:35.783Z,2.114
2023-03-01T07:46:36.433Z,2.218
2023-03-01T07:47:35.857Z,2.197
2023-03-01T07:48:36.485Z,2.25
2023-03-01T07:49:58.997Z,2.207
2023-03-01T07:50:36.149Z,2.187
2023-03-01T07:51:36.104Z,2.176
2023-03-01T07:52:35.426Z,2.197
2023-03-01T07:53:35.872Z,2.25
2023-03-01T07:54:35.707Z,2.25
2023-03-01T07:55:36.449Z,2.145
2023-03-01T07:56:35.561Z,2.166
2023-03-01T07:57:35.860Z,2.229
2023-03-01T07:58:36.409Z,2.260
2023-03-01T07:59:35.634Z,2.312
2023-03-01T08:00:37.597Z,2.312
2023-03-01T08:01:39.763Z,2.280
2023-03-01T08:02:36.340Z,2.239
2023-03-01T08:03:35.946Z,2.135
2023-03-01T08:04:36.630Z,2.125
2023-03-01T08:05:37.327Z,2.218
2023-03-01T08:06:35.261Z,2.322
2023-03-01T08:07:36.233Z,2.332
2023-03-01T08:08:36.598Z,2.375
2023-03-01T08:10:36.152Z,2.375
2023-03-01T08:11:36.499Z,2.375
2023-03-01T08:12:35.678Z,2.385
2023-03-01T08:13:37.623Z,2.375
2023-03-01T08:14:36.807Z,2.416
2023-03-01T08:15:37.287Z,2.437
2023-03-01T08:16:36.652Z,2.405
2023-03-01T08:17:36.541Z,2.437
2023-03-01T08:18:36.908Z,2.416
2023-03-01T08:19:35.874Z,2.437
2023-03-01T08:20:36.389Z,2.437
2023-03-01T08:21:36.943Z,2.449
2023-03-01T08:22:36.985Z,2.5
2023-03-01T08:23:36.098Z,2.5
2023-03-01T08:24:35.917Z,2.5
2023-03-01T08:25:36.378Z,2.5
2023-03-01T08:26:37.041Z,2.508
2023-03-01T08:27:38.164Z,2.524
2023-03-01T08:28:37.432Z,2.562
2023-03-01T08:29:37.812Z,2.549
2023-03-01T08:30:38.364Z,2.5
2023-03-01T08:31:36.751Z,2.5
2023-03-01T08:32:37.017Z,2.562
2023-03-01T08:33:36.807Z,2.562
2023-03-01T08:34:37.446Z,2.551
2023-03-01T08:35:37.991Z,2.562
2023-03-01T08:36:36.605Z,2.588
2023-03-01T08:37:36.458Z,2.625
2023-03-01T08:38:36.909Z,2.614
2023-03-01T08:39:36.244Z,2.614
2023-03-01T08:40:36.018Z,2.562
2023-03-01T08:41:35.706Z,2.582
2023-03-01T08:47:32.984Z,2.687
2023-03-01T08:48:37.210Z,2.687
2023-03-01T08:49:32.280Z,2.737
2023-03-01T08:50:37.262Z,2.687
2023-03-01T08:51:31.521Z,2.712
2023-03-01T08:52:37.176Z,2.732
2023-03-01T08:53:31.845Z,2.75
2023-03-01T08:54:32.250Z,2.75
2023-03-01T08:55:31.487Z,2.75
2023-03-01T08:56:37.535Z,2.776
2023-03-01T08:57:32.145Z,2.812
2023-03-01T08:58:32.606Z,2.758
2023-03-01T08:59:32.654Z,2.75
2023-03-01T09:00:39.151Z,2.75
2023-03-01T09:01:33.328Z,2.75
2023-03-01T09:02:41.048Z,2.791
2023-03-01T09:03:32.493Z,2.812
2023-03-01T09:04:40.401Z,2.812
2023-03-01T09:05:32.682Z,2.812
2023-03-01T09:06:40.625Z,2.812
2023-03-01T09:07:32.679Z,2.812
2023-03-01T09:09:33.077Z,2.843
2023-03-01T09:11:32.150Z,2.864
2023-03-01T09:12:32.412Z,2.875
2023-03-01T09:13:33.734Z,2.875
2023-03-01T09:14:32.914Z,2.875
2023-03-01T09:15:33.520Z,2.885
2023-03-01T09:16:33.154Z,2.905
2023-03-01T09:17:32.600Z,2.875
2023-03-01T09:19:32.752Z,2.926
2023-03-01T09:20:37.882Z,2.926
2023-03-01T09:21:49.984Z,2.916
2023-03-01T09:23:32.582Z,2.926
2023-03-01T09:24:37.459Z,2.937
2023-03-01T09:25:32.487Z,2.989
2023-03-01T09:27:32.342Z,2.937
2023-03-01T09:28:42.224Z,2.937
2023-03-01T09:29:31.555Z,2.947
2023-03-01T09:31:32.098Z,2.937
2023-03-01T09:32:53.445Z,2.937
2023-03-01T09:33:33.085Z,2.957
2023-03-01T09:35:33.473Z,2.957
2023-03-01T09:37:32.284Z,2.937
2023-03-01T09:39:33.297Z,2.937
2023-03-01T09:41:32.073Z,3.020
2023-03-01T09:42:32.556Z,3
2023-03-01T09:43:33.066Z,3
2023-03-01T09:45:33.062Z,3.041
2023-03-01T09:47:32.298Z,3.030
2023-03-01T09:49:33.114Z,3.062
2023-03-01T09:50:32.686Z,3.041
2023-03-01T09:51:32.356Z,3.041
2023-03-01T09:52:32.656Z,3.030
2023-03-01T09:53:32.719Z,3.062
2023-03-01T09:55:32.909Z,3.062
2023-03-01T09:56:33.107Z,3.062
2023-03-01T09:57:32.446Z,3.062
2023-03-01T09:59:35.485Z,3.072
2023-03-01T10:00:33.693Z,3.062
2023-03-01T10:01:33.447Z,3.114
2023-03-01T10:03:32.939Z,3.125
2023-03-01T10:04:32.980Z,3.125
2023-03-01T10:05:32.404Z,3.104
2023-03-01T10:06:47.385Z,3.082
2023-03-01T10:07:32.745Z,3.114
2023-03-01T10:08:32.341Z,3.125
2023-03-01T10:09:32.535Z,3.125
2023-03-01T10:11:35.191Z,3.125
2023-03-01T10:12:32.149Z,3.125
2023-03-01T10:13:32.826Z,3.125
2023-03-01T10:14:33.568Z,3.125
2023-03-01T10:15:33.372Z,3.125
2023-03-01T10:16:32.528Z,3.135
2023-03-01T10:17:33.091Z,3.187
2023-03-01T10:18:32.414Z,3.133
2023-03-01T10:19:32.391Z,3.187
2023-03-01T10:21:33.069Z,3.187
2023-03-01T10:22:33.281Z,3.187
2023-03-01T10:23:33.834Z,3.187
2023-03-01T10:24:32.570Z,3.187
2023-03-01T10:25:32.791Z,3.174
2023-03-01T10:26:32.628Z,3.187
2023-03-01T10:27:32.294Z,3.187
2023-03-01T10:29:32.326Z,3.187
2023-03-01T10:31:32.603Z,3.239
2023-03-01T10:32:32.716Z,3.197
2023-03-01T10:33:32.458Z,3.218
2023-03-01T10:35:33.987Z,3.25
2023-03-01T10:37:32.507Z,3.25
2023-03-01T10:39:34.448Z,3.25
2023-03-01T10:40:32.758Z,3.25
2023-03-01T10:41:35.431Z,3.25
2023-03-01T10:42:35.500Z,3.25
2023-03-01T10:43:36.069Z,3.25
2023-03-01T10:44:35.753Z,3.301
2023-03-01T10:45:34.979Z,3.25
2023-03-01T10:46:36.399Z,3.25
2023-03-01T10:47:37.126Z,3.25
2023-03-01T10:48:36.181Z,3.25
2023-03-01T10:49:37.357Z,3.25
2023-03-01T10:50:36.258Z,3.280
2023-03-01T10:51:36.693Z,3.312
2023-03-01T10:52:35.881Z,3.312
2023-03-01T10:53:36.498Z,3.25
2023-03-01T10:54:36.877Z,3.25
2023-03-01T10:55:36.586Z,3.260
2023-03-01T10:56:36.965Z,3.25
2023-03-01T10:57:36.674Z,3.25
2023-03-01T10:58:36.008Z,3.301
2023-03-01T10:59:36.412Z,3.312
2023-03-01T11:00:37.601Z,3.312
2023-03-01T11:01:38.833Z,3.312
2023-03-01T11:02:40.043Z,3.312
2023-03-01T11:03:38.086Z,3.312
2023-03-01T11:04:38.608Z,3.312
2023-03-01T11:05:39.207Z,3.312
2023-03-01T11:06:36.977Z,3.312
2023-03-01T11:07:37.675Z,3.312
2023-03-01T11:08:38.485Z,3.312
2023-03-01T11:09:36.074Z,3.312
2023-03-01T11:10:36.802Z,3.312
2023-03-01T11:11:35.815Z,3.312
2023-03-01T11:12:36.049Z,3.312
2023-03-01T11:13:38.340Z,3.322
2023-03-01T11:14:41.112Z,3.375
2023-03-01T11:15:36.831Z,3.375
2023-03-01T11:16:37.268Z,3.375
2023-03-01T11:17:47.961Z,3.375
2023-03-01T11:18:48.322Z,3.375
2023-03-01T11:19:36.688Z,3.437
2023-03-01T11:20:38.274Z,3.405
2023-03-01T11:21:35.907Z,3.375
2023-03-01T11:22:36.594Z,3.375
2023-03-01T11:23:41.209Z,3.375
2023-03-01T11:24:35.894Z,3.375
2023-03-01T11:25:37.210Z,3.375
2023-03-01T11:26:37.587Z,3.405
2023-03-01T11:27:43.056Z,3.375
2023-03-01T11:28:36.791Z,3.375
2023-03-01T11:29:47.869Z,3.375
2023-03-01T11:30:37.289Z,3.405
2023-03-01T11:31:39.048Z,3.426
2023-03-01T11:32:35.782Z,3.416
2023-03-01T11:33:36.700Z,2.859
2023-03-01T11:34:36.318Z,3.437
2023-03-01T11:35:36.165Z,3.437
2023-03-01T11:36:36.799Z,3.479
2023-03-01T11:37:37.497Z,3.447
2023-03-01T11:39:36.388Z,3.437
2023-03-01T11:40:38.365Z,3.437
2023-03-01T11:41:37.195Z,3.437
2023-03-01T11:42:36.350Z,3.437
2023-03-01T11:43:51.032Z,3.437
2023-03-01T11:44:37.027Z,3.437
2023-03-01T11:45:36.284Z,3.437
2023-03-01T11:46:36.010Z,3.437
2023-03-01T11:47:36.040Z,3.437
2023-03-01T11:48:48.864Z,3.463
2023-03-01T11:49:35.951Z,3.437
2023-03-01T11:50:37.521Z,3.437
2023-03-01T11:51:37.033Z,3.437
2023-03-01T11:52:36.184Z,3.490
2023-03-01T11:53:37.003Z,3.437
2023-03-01T11:54:36.386Z,3.437
2023-03-01T11:55:42.495Z,3.462
2023-03-01T11:56:37.524Z,3.5
2023-03-01T11:57:43.831Z,3.512
2023-03-01T11:58:35.508Z,3.5
2023-03-01T11:59:36.763Z,3.5
2023-03-01T12:00:37.188Z,3.5
2023-03-01T12:01:56.537Z,2.900
2023-03-01T12:02:37.190Z,3.5
2023-03-01T12:03:36.326Z,3.5
2023-03-01T12:04:37.046Z,3.5
2023-03-01T12:05:43.884Z,2.799
2023-03-01T12:06:37.442Z,3.535
2023-03-01T12:07:36.291Z,3.562
2023-03-01T12:08:36.449Z,3.5
2023-03-01T12:09:57.763Z,3.5
2023-03-01T12:11:36.021Z,3.5
2023-03-01T12:12:35.814Z,3.5
2023-03-01T12:13:38.714Z,3.5
2023-03-01T12:14:36.269Z,3.5
2023-03-01T12:15:50.852Z,3.5
2023-03-01T12:16:52.423Z,3.5
2023-03-01T12:17:36.804Z,3.5
2023-03-01T12:18:36.107Z,3.520
2023-03-01T12:19:35.338Z,3.510
2023-03-01T12:20:35.806Z,3.5
2023-03-01T12:21:35.811Z,3.5
2023-03-01T12:22:36.504Z,3.5
2023-03-01T12:23:36.190Z,3.5
2023-03-01T12:24:37.056Z,3.5
2023-03-01T12:25:50.323Z,3.5
2023-03-01T12:26:38.272Z,3.5
2023-03-01T12:27:36.224Z,3.5
2023-03-01T12:28:36.597Z,3.5
2023-03-01T12:29:36.702Z,3.510
2023-03-01T12:30:36.566Z,3.562
2023-03-01T12:31:36.661Z,3.562
2023-03-01T12:32:36.676Z,3.562
2023-03-01T12:33:37.379Z,3.562
2023-03-01T12:34:36.444Z,3.562
2023-03-01T12:35:36.560Z,3.562
2023-03-01T12:36:37.287Z,3.562
2023-03-01T12:37:36.615Z,3.562
2023-03-01T12:38:36.078Z,3.562
2023-03-01T12:39:36.285Z,3.562
2023-03-01T12:40:36.898Z,3.562
2023-03-01T12:41:36.672Z,3.562
2023-03-01T12:42:36.759Z,3.582
2023-03-01T12:43:37.438Z,3.572
2023-03-01T12:44:36.334Z,3.582
2023-03-01T12:45:37.670Z,3.572
2023-03-01T12:46:36.853Z,3.562
2023-03-01T12:47:38.042Z,3.593
2023-03-01T12:48:37.211Z,3.614
2023-03-01T12:49:36.164Z,3.625
2023-03-01T12:50:36.948Z,3.625
2023-03-01T12:51:36.622Z,3.582
2023-03-01T12:52:36.871Z,3.614
2023-03-01T12:53:36.409Z,3.625
2023-03-01T12:54:37.014Z,3.625
2023-03-01T12:55:37.244Z,3.625
2023-03-01T12:56:36.139Z,3.625
2023-03-01T12:57:36.345Z,3.625
2023-03-01T12:58:49.062Z,3.625
2023-03-01T12:59:37.942Z,3.625
2023-03-01T13:00:39.557Z,3.729
2023-03-01T13:01:38.122Z,3.707
2023-03-01T13:02:36.791Z,3.687
2023-03-01T13:03:36.388Z,3.687
2023-03-01T13:04:38.152Z,3.687
2023-03-01T13:05:36.613Z,3.697
2023-03-01T13:06:43.189Z,3.75
2023-03-01T13:07:38.158Z,3.760
2023-03-01T13:08:38.152Z,3.75
2023-03-01T13:10:38.151Z,3.75
2023-03-01T13:11:36.839Z,3.707
2023-03-01T13:12:37.745Z,3.707
2023-03-01T13:13:37.950Z,3.75
2023-03-01T13:14:36.391Z,3.75
2023-03-01T13:15:37.235Z,3.75
2023-03-01T13:16:36.800Z,3.758
2023-03-01T13:17:36.649Z,3.770
2023-03-01T13:18:36.783Z,3.770
2023-03-01T13:19:37.053Z,3.812
2023-03-01T13:20:36.249Z,3.812
2023-03-01T13:21:35.802Z,3.812
2023-03-01T13:22:49.784Z,3.812
2023-03-01T13:23:36.921Z,3.824
2023-03-01T13:24:37.535Z,3.875
2023-03-01T13:25:45.281Z,3.875
2023-03-01T13:26:35.944Z,3.875
2023-03-01T13:27:36.932Z,3.875
2023-03-01T13:28:36.520Z,3.875
2023-03-01T13:29:37.059Z,3.875
2023-03-01T13:30:36.520Z,3.865
2023-03-01T13:31:37.258Z,3.824
2023-03-01T13:32:45.533Z,3.812
2023-03-01T13:33:36.981Z,3.812
2023-03-01T13:34:36.696Z,3.838
2023-03-01T13:35:36.548Z,3.912
2023-03-01T13:36:37.382Z,3.937